Time;durP1;ratioP1;P1;durP2;ratioP2;P2;SDS_P1;SDS_P2;PMS_P1;PMS_P2;Temp;Humidity;BMP_temperature;BMP_pressure;BME280_temperature;BME280_humidity;BME280_pressure;Samples;Min_cycle;Max_cycle;Signal;HPM_P1;HPM_P2
2023/06/22 00:01:15;;;;;;;6.22;5.57;;;;;;;;;;5053851;28;20108;-61
2023/06/22 00:03:41;;;;;;;5.95;5.32;;;;;;;;;;5053641;28;20027;-60
2023/06/22 00:06:07;;;;;;;6.35;5.75;;;;;;;;;;5053740;28;20522;-61
2023/06/22 00:08:33;;;;;;;5.28;4.78;;;;;;;;;;5054141;28;20112;-61
2023/06/22 00:10:59;;;;;;;6.32;5.68;;;;;;;;;;5053640;28;20025;-60
2023/06/22 00:13:25;;;;;;;7.57;5.22;;;;;;;;;;5053911;28;20024;-60
2023/06/22 00:15:51;;;;;;;7.47;4.80;;;;;;;;;;5053856;28;20052;-60
2023/06/22 00:18:17;;;;;;;7.82;5.45;;;;;;;;;;5053548;28;20024;-60
2023/06/22 00:20:43;;;;;;;6.15;4.78;;;;;;;;;;5053900;28;20036;-61
2023/06/22 00:23:09;;;;;;;6.38;5.05;;;;;;;;;;5053540;28;20082;-60
2023/06/22 00:25:35;;;;;;;7.30;5.10;;;;;;;;;;5053588;28;20033;-60
2023/06/22 00:28:02;;;;;;;6.93;5.20;;;;;;;;;;5054011;28;20064;-60
2023/06/22 00:30:28;;;;;;;5.95;4.72;;;;;;;;;;5053784;28;20448;-61
2023/06/22 00:32:54;;;;;;;5.35;4.55;;;;;;;;;;5053474;28;20075;-61
2023/06/22 00:35:20;;;;;;;10.73;5.00;;;;;;;;;;5053145;28;20024;-61
2023/06/22 00:37:45;;;;;;;5.93;4.65;;;;;;;;;;5055279;28;20032;-61
2023/06/22 00:40:13;;;;;;;7.78;4.90;;;;;;;;;;5057716;28;20021;-60
2023/06/22 00:42:39;;;;;;;6.72;5.18;;;;;;;;;;5057803;28;20370;-60
2023/06/22 00:45:06;;;;;;;4.95;4.20;;;;;;;;;;5057412;28;20421;-60
2023/06/22 00:47:32;;;;;;;5.15;4.32;;;;;;;;;;5057931;28;20082;-60
2023/06/22 00:49:58;;;;;;;5.88;4.85;;;;;;;;;;5057855;28;20032;-60
2023/06/22 00:52:28;;;;;;;6.22;5.43;;;;;;;;;;5057264;28;20031;-60
2023/06/22 00:54:55;;;;;;;8.00;5.15;;;;;;;;;;5057754;28;20112;-60
2023/06/22 00:57:21;;;;;;;10.25;4.82;;;;;;;;;;5057998;28;20022;-61
2023/06/22 00:59:48;;;;;;;7.07;6.30;;;;;;;;;;5057149;28;20048;-60
2023/06/22 01:02:14;;;;;;;6.35;4.60;;;;;;;;;;5057317;28;20374;-60
2023/06/22 01:04:41;;;;;;;5.05;4.35;;;;;;;;;;5056932;28;20025;-60
2023/06/22 01:07:22;;;;;;;5.90;4.28;;;;;;;;;;5056727;28;20071;-60
2023/06/22 01:09:52;;;;;;;6.03;4.47;;;;;;;;;;5057670;28;20029;-60
2023/06/22 01:12:19;;;;;;;6.00;5.43;;;;;;;;;;5057462;28;20025;-61
2023/06/22 01:14:50;;;;;;;6.22;4.97;;;;;;;;;;5056435;28;20399;-60
2023/06/22 01:17:16;;;;;;;4.47;3.95;;;;;;;;;;5057158;28;20044;-60
2023/06/22 01:19:52;;;;;;;5.32;4.53;;;;;;;;;;5057178;28;20477;-60
2023/06/22 01:22:20;;;;;;;9.18;5.25;;;;;;;;;;5057486;28;20370;-60
2023/06/22 01:24:54;;;;;;;5.88;5.05;;;;;;;;;;5056382;28;20406;-61
2023/06/22 01:27:45;;;;;;;6.35;4.22;;;;;;;;;;5056407;28;20025;-60
2023/06/22 01:30:11;;;;;;;5.95;4.80;;;;;;;;;;5056641;28;20467;-60
2023/06/22 01:32:39;;;;;;;6.72;5.10;;;;;;;;;;5057032;28;20455;-60
2023/06/22 01:35:06;;;;;;;4.70;4.22;;;;;;;;;;5056678;28;20427;-60
2023/06/22 01:37:33;;;;;;;6.32;4.65;;;;;;;;;;5056760;28;20057;-61
2023/06/22 01:39:59;;;;;;;8.82;4.82;;;;;;;;;;5056214;28;20021;-60
2023/06/22 01:42:26;;;;;;;5.22;4.50;;;;;;;;;;5056324;28;20099;-61
2023/06/22 01:44:53;;;;;;;5.20;4.38;;;;;;;;;;5055922;28;20435;-60
2023/06/22 01:47:19;;;;;;;8.13;5.18;;;;;;;;;;5056595;28;20155;-61
2023/06/22 01:49:45;;;;;;;6.00;4.97;;;;;;;;;;5055701;28;20033;-60
2023/06/22 01:52:11;;;;;;;6.63;4.78;;;;;;;;;;5056107;28;20028;-60
2023/06/22 01:54:38;;;;;;;6.50;5.13;;;;;;;;;;5056107;28;20094;-60
2023/06/22 01:57:05;;;;;;;7.25;5.78;;;;;;;;;;5056123;28;20094;-60
2023/06/22 01:59:39;;;;;;;5.68;4.45;;;;;;;;;;5056013;28;20035;-61
2023/06/22 02:02:07;;;;;;;5.80;5.07;;;;;;;;;;5056558;28;20174;-60
2023/06/22 02:04:38;;;;;;;6.22;4.88;;;;;;;;;;5056625;28;20021;-60
2023/06/22 02:07:08;;;;;;;8.65;5.35;;;;;;;;;;5056501;28;20088;-60
2023/06/22 02:09:35;;;;;;;5.95;4.45;;;;;;;;;;5055580;28;20025;-61
2023/06/22 02:12:02;;;;;;;6.00;5.40;;;;;;;;;;5056193;28;20021;-60
2023/06/22 02:14:28;;;;;;;5.95;5.35;;;;;;;;;;5055663;28;20066;-60
2023/06/22 02:16:58;;;;;;;5.85;5.10;;;;;;;;;;5056328;28;20025;-60
2023/06/22 02:19:25;;;;;;;6.68;5.05;;;;;;;;;;5055659;28;20017;-60
2023/06/22 02:21:51;;;;;;;5.70;5.07;;;;;;;;;;5056086;28;20024;-60
2023/06/22 02:24:17;;;;;;;7.47;5.03;;;;;;;;;;5056029;28;20155;-60
2023/06/22 02:26:45;;;;;;;6.18;5.57;;;;;;;;;;5055596;28;20032;-60
2023/06/22 02:29:11;;;;;;;6.18;5.55;;;;;;;;;;5055406;28;20032;-60
2023/06/22 02:31:37;;;;;;;7.78;5.75;;;;;;;;;;5055397;28;20096;-60
2023/06/22 02:34:03;;;;;;;7.60;6.50;;;;;;;;;;5055108;28;20053;-60
2023/06/22 02:36:30;;;;;;;6.95;5.95;;;;;;;;;;5055913;28;20033;-60
2023/06/22 02:38:58;;;;;;;6.53;5.43;;;;;;;;;;5055216;28;20037;-60
2023/06/22 02:41:24;;;;;;;6.00;5.43;;;;;;;;;;5055183;28;20060;-60
2023/06/22 02:43:50;;;;;;;7.60;5.88;;;;;;;;;;5055078;28;20025;-60
2023/06/22 02:46:16;;;;;;;8.18;6.05;;;;;;;;;;5055431;28;20032;-60
2023/06/22 02:48:42;;;;;;;8.63;6.10;;;;;;;;;;5055389;28;20025;-60
2023/06/22 02:51:08;;;;;;;5.75;5.20;;;;;;;;;;5054992;28;20452;-60
2023/06/22 02:53:35;;;;;;;6.43;5.35;;;;;;;;;;5055268;28;20060;-60
2023/06/22 02:56:05;;;;;;;8.93;5.60;;;;;;;;;;5054801;28;20025;-60
2023/06/22 02:58:33;;;;;;;5.88;4.85;;;;;;;;;;5054810;28;20036;-60
2023/06/22 03:01:04;;;;;;;6.47;5.78;;;;;;;;;;5053885;28;20033;-60
2023/06/22 03:03:30;;;;;;;7.75;5.78;;;;;;;;;;5055200;28;20033;-60
2023/06/22 03:05:56;;;;;;;9.00;5.72;;;;;;;;;;5054698;28;20070;-60
2023/06/22 03:08:22;;;;;;;8.52;6.68;;;;;;;;;;5054514;28;20017;-60
2023/06/22 03:10:48;;;;;;;6.20;5.60;;;;;;;;;;5055433;28;20028;-60
2023/06/22 03:13:14;;;;;;;7.65;6.00;;;;;;;;;;5055173;28;20029;-60
2023/06/22 03:15:40;;;;;;;8.27;6.75;;;;;;;;;;5054770;28;20041;-60
2023/06/22 03:18:05;;;;;;;6.28;5.57;;;;;;;;;;5054572;28;20108;-60
2023/06/22 03:20:33;;;;;;;7.90;6.43;;;;;;;;;;5054750;28;20336;-60
2023/06/22 03:22:59;;;;;;;7.03;6.03;;;;;;;;;;5054310;28;20108;-60
2023/06/22 03:25:25;;;;;;;7.72;6.05;;;;;;;;;;5054339;28;20029;-60
2023/06/22 03:27:51;;;;;;;8.27;6.50;;;;;;;;;;5054415;28;20408;-60
2023/06/22 03:30:17;;;;;;;6.80;5.95;;;;;;;;;;5053940;28;20079;-60
2023/06/22 03:32:43;;;;;;;6.78;5.88;;;;;;;;;;5054600;28;20021;-60
2023/06/22 03:35:12;;;;;;;6.45;5.78;;;;;;;;;;5054306;28;20451;-60
2023/06/22 03:37:38;;;;;;;7.70;6.25;;;;;;;;;;5054589;28;20450;-60
2023/06/22 03:40:05;;;;;;;7.35;6.22;;;;;;;;;;5054224;28;20060;-60
2023/06/22 03:42:31;;;;;;;9.65;5.97;;;;;;;;;;5054350;28;20029;-60
2023/06/22 03:44:57;;;;;;;6.53;5.85;;;;;;;;;;5054215;28;20028;-60
2023/06/22 03:47:23;;;;;;;8.93;6.25;;;;;;;;;;5054150;28;20375;-60
2023/06/22 03:49:49;;;;;;;6.45;5.40;;;;;;;;;;5054012;28;20033;-60
2023/06/22 03:52:15;;;;;;;6.15;5.45;;;;;;;;;;5054074;28;20159;-61
2023/06/22 03:54:41;;;;;;;5.95;5.35;;;;;;;;;;5053720;28;20398;-60
2023/06/22 03:57:07;;;;;;;6.53;5.90;;;;;;;;;;5054027;28;20025;-60
2023/06/22 03:59:33;;;;;;;7.60;5.97;;;;;;;;;;5054411;28;20021;-60
2023/06/22 04:01:59;;;;;;;7.78;6.45;;;;;;;;;;5053944;28;20418;-60
2023/06/22 04:04:25;;;;;;;6.72;6.07;;;;;;;;;;5054588;28;20060;-60
2023/06/22 04:06:51;;;;;;;6.93;5.82;;;;;;;;;;5053860;28;20067;-60
2023/06/22 04:09:17;;;;;;;6.97;6.07;;;;;;;;;;5053741;28;20025;-60
2023/06/22 04:11:43;;;;;;;9.32;6.53;;;;;;;;;;5054074;28;20108;-60
2023/06/22 04:14:09;;;;;;;6.50;5.88;;;;;;;;;;5053462;28;20060;-60
2023/06/22 04:16:35;;;;;;;7.38;6.00;;;;;;;;;;5054497;28;20367;-60
2023/06/22 04:19:01;;;;;;;7.35;6.22;;;;;;;;;;5053716;28;20028;-60
2023/06/22 04:21:27;;;;;;;6.40;5.80;;;;;;;;;;5053644;28;20119;-60
2023/06/22 04:23:53;;;;;;;5.88;5.28;;;;;;;;;;5054104;28;20427;-60
2023/06/22 04:26:20;;;;;;;7.28;5.63;;;;;;;;;;5053724;28;20029;-61
2023/06/22 04:28:51;;;;;;;6.80;6.10;;;;;;;;;;5054031;28;20032;-60
2023/06/22 04:31:17;;;;;;;;;;;;;;;;;;5054272;28;20029;-60
2023/06/22 04:33:43;;;;;;;7.68;5.38;;;;;;;;;;5053853;28;20303;-60
2023/06/22 04:36:08;;;;;;;6.05;5.03;;;;;;;;;;5053542;28;20036;-60
2023/06/22 04:38:34;;;;;;;7.38;5.40;;;;;;;;;;5053458;28;20025;-60
2023/06/22 04:41:03;;;;;;;6.70;5.10;;;;;;;;;;5054822;28;20374;-60
2023/06/22 04:43:30;;;;;;;8.48;5.82;;;;;;;;;;5053403;28;20032;-60
2023/06/22 04:45:56;;;;;;;7.10;5.45;;;;;;;;;;5053045;28;20028;-61
2023/06/22 04:48:22;;;;;;;9.82;5.88;;;;;;;;;;5053650;28;20332;-60
2023/06/22 04:50:48;;;;;;;6.00;5.10;;;;;;;;;;5053755;28;20023;-60
2023/06/22 04:53:14;;;;;;;6.65;5.68;;;;;;;;;;5053397;28;20356;-60
2023/06/22 04:55:41;;;;;;;9.52;6.32;;;;;;;;;;5054036;28;20113;-61
2023/06/22 04:58:07;;;;;;;7.07;6.38;;;;;;;;;;5053582;28;20029;-60
2023/06/22 05:00:36;;;;;;;5.72;5.03;;;;;;;;;;5053559;28;20021;-60
2023/06/22 05:03:03;;;;;;;5.95;5.30;;;;;;;;;;5053351;28;20413;-60
2023/06/22 05:05:29;;;;;;;9.40;6.50;;;;;;;;;;5053970;28;20037;-60
2023/06/22 05:08:00;;;;;;;7.32;6.05;;;;;;;;;;5053883;28;20388;-61
2023/06/22 05:10:26;;;;;;;6.70;5.63;;;;;;;;;;5053140;28;20032;-61
2023/06/22 05:12:52;;;;;;;7.18;4.95;;;;;;;;;;5053182;28;20024;-61
2023/06/22 05:15:26;;;;;;;6.35;5.65;;;;;;;;;;5053394;28;20045;-60
2023/06/22 05:17:52;;;;;;;6.60;6.00;;;;;;;;;;5053630;28;20025;-60
2023/06/22 05:20:18;;;;;;;9.95;6.40;;;;;;;;;;5053411;28;20044;-61
2023/06/22 05:22:44;;;;;;;6.88;6.03;;;;;;;;;;5053083;28;20036;-60
2023/06/22 05:25:10;;;;;;;6.85;5.85;;;;;;;;;;5056960;28;20484;-61
2023/06/22 05:27:39;;;;;;;10.35;5.63;;;;;;;;;;5056777;28;20409;-60
2023/06/22 05:30:06;;;;;;;6.50;5.28;;;;;;;;;;5056254;28;20025;-60
2023/06/22 05:32:33;;;;;;;5.43;4.90;;;;;;;;;;5056382;28;20036;-60
2023/06/22 05:34:59;;;;;;;8.82;6.00;;;;;;;;;;5056328;28;20033;-60
2023/06/22 05:37:25;;;;;;;5.30;4.80;;;;;;;;;;5056830;28;20451;-61
2023/06/22 05:39:51;;;;;;;7.22;5.38;;;;;;;;;;5056367;28;20029;-61
2023/06/22 05:42:17;;;;;;;6.55;4.90;;;;;;;;;;5056342;28;20098;-60
2023/06/22 05:44:43;;;;;;;6.40;5.60;;;;;;;;;;5055954;28;20028;-61
2023/06/22 05:47:09;;;;;;;6.15;5.40;;;;;;;;;;5056813;28;20082;-60
2023/06/22 05:49:35;;;;;;;8.07;5.57;;;;;;;;;;5056419;28;20116;-61
2023/06/22 05:52:01;;;;;;;6.07;5.10;;;;;;;;;;5055951;28;20025;-60
2023/06/22 05:54:28;;;;;;;6.70;5.32;;;;;;;;;;5055757;28;20120;-60
2023/06/22 05:56:54;;;;;;;5.55;4.25;;;;;;;;;;5056641;28;20148;-60
2023/06/22 05:59:20;;;;;;;6.78;5.55;;;;;;;;;;5056367;28;20457;-61
2023/06/22 06:01:49;;;;;;;5.55;4.60;;;;;;;;;;5056433;28;20029;-61
2023/06/22 06:04:15;;;;;;;6.90;4.45;;;;;;;;;;5055278;28;20548;-61
2023/06/22 06:06:41;;;;;;;5.80;4.35;;;;;;;;;;5056386;28;20025;-60
2023/06/22 06:09:07;;;;;;;7.13;4.32;;;;;;;;;;5055953;28;20432;-61
2023/06/22 06:11:33;;;;;;;5.25;4.20;;;;;;;;;;5055656;28;20099;-61
2023/06/22 06:13:59;;;;;;;5.57;4.10;;;;;;;;;;5056152;28;20021;-60
2023/06/22 06:16:25;;;;;;;5.20;4.25;;;;;;;;;;5056805;28;20438;-60
2023/06/22 06:18:53;;;;;;;6.20;4.00;;;;;;;;;;5055774;28;20017;-60
2023/06/22 06:21:19;;;;;;;5.63;4.25;;;;;;;;;;5055952;28;20025;-58
2023/06/22 06:23:45;;;;;;;6.13;4.38;;;;;;;;;;5055233;28;20033;-58
2023/06/22 06:26:11;;;;;;;7.35;4.80;;;;;;;;;;5056004;28;20040;-58
2023/06/22 06:28:37;;;;;;;6.65;3.85;;;;;;;;;;5055419;28;20021;-59
2023/06/22 06:31:06;;;;;;;5.65;4.57;;;;;;;;;;5056019;28;20025;-59
2023/06/22 06:33:32;;;;;;;6.70;3.70;;;;;;;;;;5054075;28;20082;-59
2023/06/22 06:36:01;;;;;;;4.88;4.13;;;;;;;;;;5055304;28;20635;-58
2023/06/22 06:38:28;;;;;;;4.90;3.88;;;;;;;;;;5055229;28;20025;-59
2023/06/22 06:40:54;;;;;;;5.50;4.15;;;;;;;;;;5054873;28;20033;-59
2023/06/22 06:43:19;;;;;;;8.48;4.63;;;;;;;;;;5055056;28;20134;-59
2023/06/22 06:45:45;;;;;;;5.30;4.07;;;;;;;;;;5055195;28;20060;-59
2023/06/22 06:48:11;;;;;;;5.07;3.90;;;;;;;;;;5055336;28;20028;-59
2023/06/22 06:50:37;;;;;;;5.15;3.65;;;;;;;;;;5054545;28;20036;-60
2023/06/22 06:53:05;;;;;;;6.18;3.80;;;;;;;;;;5055310;28;20024;-60
2023/06/22 06:55:32;;;;;;;5.60;3.75;;;;;;;;;;5054915;28;20021;-60
2023/06/22 06:57:59;;;;;;;5.65;3.38;;;;;;;;;;5055776;28;20029;-60
2023/06/22 07:00:25;;;;;;;4.80;3.55;;;;;;;;;;5054923;28;20062;-60
2023/06/22 07:02:51;;;;;;;4.38;3.40;;;;;;;;;;5054766;28;20051;-60
2023/06/22 07:05:18;;;;;;;5.10;3.13;;;;;;;;;;5054792;28;20029;-61
2023/06/22 07:07:44;;;;;;;7.75;4.00;;;;;;;;;;5055377;28;20119;-60
2023/06/22 07:10:10;;;;;;;4.90;3.65;;;;;;;;;;5054647;28;20029;-60
2023/06/22 07:12:36;;;;;;;5.55;3.75;;;;;;;;;;5055178;28;20052;-60
2023/06/22 07:15:05;;;;;;;4.47;2.95;;;;;;;;;;5055162;28;20049;-60
2023/06/22 07:17:31;;;;;;;4.43;3.93;;;;;;;;;;5054868;28;20414;-60
2023/06/22 07:19:57;;;;;;;6.18;3.33;;;;;;;;;;5055040;28;20252;-60
2023/06/22 07:22:23;;;;;;;4.53;3.13;;;;;;;;;;5054494;28;20463;-60
2023/06/22 07:24:49;;;;;;;4.10;3.05;;;;;;;;;;5053999;28;20036;-60
2023/06/22 07:27:19;;;;;;;4.60;2.90;;;;;;;;;;5054753;28;20115;-60
2023/06/22 07:29:45;;;;;;;4.30;3.42;;;;;;;;;;5054370;28;20071;-60
2023/06/22 07:32:11;;;;;;;3.83;2.75;;;;;;;;;;5054623;28;20366;-60
2023/06/22 07:34:38;;;;;;;5.30;3.00;;;;;;;;;;5054232;28;20105;-60
2023/06/22 07:37:04;;;;;;;4.72;3.15;;;;;;;;;;5055008;28;20118;-60
2023/06/22 07:39:30;;;;;;;4.63;2.97;;;;;;;;;;5054075;28;20438;-60
2023/06/22 07:41:56;;;;;;;5.05;2.78;;;;;;;;;;5054125;28;20036;-60
2023/06/22 07:44:22;;;;;;;6.35;2.63;;;;;;;;;;5054554;28;20025;-60
2023/06/22 07:46:48;;;;;;;5.55;3.20;;;;;;;;;;5053819;28;20040;-60
2023/06/22 07:49:14;;;;;;;6.05;3.25;;;;;;;;;;5054029;28;20025;-60
2023/06/22 07:51:40;;;;;;;4.57;3.17;;;;;;;;;;5053655;28;20086;-60
2023/06/22 07:54:07;;;;;;;5.25;3.10;;;;;;;;;;5053658;28;20025;-61
2023/06/22 07:56:33;;;;;;;5.07;3.03;;;;;;;;;;5054495;28;20056;-62
2023/06/22 07:59:00;;;;;;;4.57;3.40;;;;;;;;;;5054151;28;20129;-62
2023/06/22 08:01:26;;;;;;;4.85;3.00;;;;;;;;;;5054665;28;20106;-60
2023/06/22 08:03:52;;;;;;;5.90;3.45;;;;;;;;;;5053887;28;20061;-62
2023/06/22 08:06:18;;;;;;;4.65;3.40;;;;;;;;;;5053892;28;20425;-60
2023/06/22 08:08:47;;;;;;;6.00;2.92;;;;;;;;;;5052736;28;20024;-61
2023/06/22 08:11:13;;;;;;;4.63;3.08;;;;;;;;;;5053968;28;20486;-61
2023/06/22 08:13:39;;;;;;;3.47;2.97;;;;;;;;;;5052273;28;20033;-60
2023/06/22 08:16:07;;;;;;;7.78;3.85;;;;;;;;;;5054192;28;20045;-60
2023/06/22 08:18:33;;;;;;;4.57;4.05;;;;;;;;;;5054165;28;20029;-60
2023/06/22 08:20:59;;;;;;;3.80;3.38;;;;;;;;;;5053618;28;20092;-61
2023/06/22 08:23:25;;;;;;;6.30;3.50;;;;;;;;;;5054064;28;20025;-61
2023/06/22 08:25:51;;;;;;;6.13;3.60;;;;;;;;;;5054144;28;20370;-60
2023/06/22 08:28:17;;;;;;;4.82;3.13;;;;;;;;;;5053999;28;20051;-60
2023/06/22 08:30:43;;;;;;;7.07;3.65;;;;;;;;;;5053593;28;20481;-61
2023/06/22 08:33:09;;;;;;;4.85;3.10;;;;;;;;;;5053987;28;20190;-60
2023/06/22 08:35:35;;;;;;;5.28;3.17;;;;;;;;;;5053503;28;20462;-60
2023/06/22 08:38:01;;;;;;;6.00;3.65;;;;;;;;;;5053768;28;20371;-60
2023/06/22 08:40:29;;;;;;;6.82;3.50;;;;;;;;;;5053430;28;20026;-60
2023/06/22 08:42:55;;;;;;;7.03;3.70;;;;;;;;;;5054118;28;20017;-60
2023/06/22 08:45:21;;;;;;;6.78;3.72;;;;;;;;;;5053450;28;20036;-60
2023/06/22 08:47:47;;;;;;;7.50;3.42;;;;;;;;;;5053783;28;20025;-60
2023/06/22 08:50:13;;;;;;;5.65;3.70;;;;;;;;;;5053357;28;20048;-60
2023/06/22 08:52:41;;;;;;;6.93;3.75;;;;;;;;;;5053320;28;20382;-60
2023/06/22 08:55:08;;;;;;;4.82;3.40;;;;;;;;;;5053331;28;20108;-60
2023/06/22 08:57:34;;;;;;;7.93;3.90;;;;;;;;;;5054158;28;20021;-60
2023/06/22 09:00:00;;;;;;;5.78;3.83;;;;;;;;;;5057043;28;20017;-60
2023/06/22 09:02:30;;;;;;;5.63;3.38;;;;;;;;;;5057047;28;20017;-60
2023/06/22 09:04:59;;;;;;;4.57;3.72;;;;;;;;;;5057305;28;20036;-61
2023/06/22 09:07:25;;;;;;;8.00;4.32;;;;;;;;;;5057235;28;20029;-61
2023/06/22 09:09:51;;;;;;;5.18;3.75;;;;;;;;;;5057047;28;20056;-61
2023/06/22 09:12:19;;;;;;;6.82;4.22;;;;;;;;;;5057148;28;20112;-61
2023/06/22 09:14:46;;;;;;;6.43;4.10;;;;;;;;;;5056578;28;20082;-61
2023/06/22 09:17:13;;;;;;;6.88;3.90;;;;;;;;;;5056872;28;20067;-61
2023/06/22 09:19:39;;;;;;;6.28;4.43;;;;;;;;;;5056842;28;20452;-61
2023/06/22 09:22:06;;;;;;;5.90;4.43;;;;;;;;;;5057261;28;20032;-61
2023/06/22 09:24:32;;;;;;;5.22;3.92;;;;;;;;;;5057143;28;20037;-61
2023/06/22 09:26:58;;;;;;;7.68;4.50;;;;;;;;;;5057039;28;20120;-61
2023/06/22 09:29:24;;;;;;;5.05;3.63;;;;;;;;;;5056367;28;20049;-61
2023/06/22 09:31:50;;;;;;;4.20;3.80;;;;;;;;;;5056777;28;20108;-61
2023/06/22 09:34:20;;;;;;;4.57;3.80;;;;;;;;;;5056558;28;20371;-61
2023/06/22 09:36:46;;;;;;;4.85;3.65;;;;;;;;;;5056482;28;20029;-61
2023/06/22 09:39:12;;;;;;;6.50;4.20;;;;;;;;;;5056433;28;20021;-61
2023/06/22 09:41:38;;;;;;;5.90;4.43;;;;;;;;;;5056428;28;20028;-61
2023/06/22 09:44:04;;;;;;;4.32;3.40;;;;;;;;;;5056591;28;20056;-61
2023/06/22 09:46:30;;;;;;;5.60;4.40;;;;;;;;;;5056436;28;20037;-61
2023/06/22 09:48:56;;;;;;;5.93;3.83;;;;;;;;;;5056274;28;20021;-61
2023/06/22 09:51:23;;;;;;;5.90;4.15;;;;;;;;;;5056222;28;20083;-61
2023/06/22 09:53:49;;;;;;;5.18;3.83;;;;;;;;;;5055967;28;20032;-61
2023/06/22 09:56:15;;;;;;;6.35;4.45;;;;;;;;;;5056100;28;20021;-61
2023/06/22 09:58:42;;;;;;;7.97;3.78;;;;;;;;;;5056820;28;20028;-61
2023/06/22 10:01:08;;;;;;;6.03;4.03;;;;;;;;;;5056516;28;20020;-61
2023/06/22 10:03:34;;;;;;;5.28;3.78;;;;;;;;;;5056216;28;20025;-61
2023/06/22 10:06:00;;;;;;;4.57;3.58;;;;;;;;;;5056173;28;20077;-61
2023/06/22 10:08:26;;;;;;;4.38;3.58;;;;;;;;;;5055814;28;20029;-61
2023/06/22 10:10:52;;;;;;;5.70;3.50;;;;;;;;;;5055734;28;20013;-61
2023/06/22 10:13:19;;;;;;;6.03;3.72;;;;;;;;;;5055745;28;20028;-61
2023/06/22 10:15:49;;;;;;;9.75;3.92;;;;;;;;;;5056027;28;20060;-61
2023/06/22 10:18:16;;;;;;;5.55;3.42;;;;;;;;;;5055736;28;20531;-61
2023/06/22 10:20:42;;;;;;;9.52;4.13;;;;;;;;;;5055612;28;20103;-61
2023/06/22 10:23:08;;;;;;;8.55;3.67;;;;;;;;;;5055607;28;20079;-61
2023/06/22 10:25:34;;;;;;;13.25;4.65;;;;;;;;;;5055609;28;20033;-61
2023/06/22 10:28:00;;;;;;;5.90;4.05;;;;;;;;;;5055562;28;20371;-61
2023/06/22 10:30:26;;;;;;;4.30;3.40;;;;;;;;;;5055572;28;20459;-61
2023/06/22 10:32:52;;;;;;;9.90;3.67;;;;;;;;;;5055172;28;20389;-61
2023/06/22 10:35:18;;;;;;;6.35;4.28;;;;;;;;;;5055397;28;20190;-61
2023/06/22 10:37:44;;;;;;;7.60;3.63;;;;;;;;;;5055675;28;20029;-61
2023/06/22 10:40:11;;;;;;;10.02;4.18;;;;;;;;;;5055285;28;20067;-61
2023/06/22 10:42:37;;;;;;;5.53;3.92;;;;;;;;;;5055565;28;20124;-61
2023/06/22 10:45:03;;;;;;;4.38;3.75;;;;;;;;;;5055122;28;20029;-61
2023/06/22 10:47:29;;;;;;;8.35;4.28;;;;;;;;;;5055738;28;20116;-61
2023/06/22 10:49:55;;;;;;;7.43;3.95;;;;;;;;;;5055150;28;20056;-61
2023/06/22 10:52:21;;;;;;;10.73;3.88;;;;;;;;;;5055349;28;20047;-62
2023/06/22 10:54:47;;;;;;;4.70;3.72;;;;;;;;;;5055074;28;20071;-59
2023/06/22 10:57:14;;;;;;;5.10;3.97;;;;;;;;;;5055307;28;20366;-59
2023/06/22 10:59:40;;;;;;;9.35;3.88;;;;;;;;;;5055215;28;20029;-59
2023/06/22 11:02:06;;;;;;;6.43;4.47;;;;;;;;;;5055446;28;20028;-59
2023/06/22 11:04:32;;;;;;;4.78;3.53;;;;;;;;;;5054797;28;20033;-59
2023/06/22 11:06:58;;;;;;;5.63;3.58;;;;;;;;;;5055345;28;20028;-59
2023/06/22 11:09:24;;;;;;;7.38;4.47;;;;;;;;;;5054494;28;20075;-59
2023/06/22 11:11:53;;;;;;;5.32;3.35;;;;;;;;;;5054609;28;20013;-59
2023/06/22 11:14:19;;;;;;;5.55;4.00;;;;;;;;;;5054299;28;20032;-60
2023/06/22 11:16:46;;;;;;;6.75;4.13;;;;;;;;;;5055147;28;20033;-59
2023/06/22 11:19:12;;;;;;;9.93;4.80;;;;;;;;;;5054804;28;20108;-59
2023/06/22 11:21:38;;;;;;;5.28;3.95;;;;;;;;;;5054261;28;20113;-59
2023/06/22 11:24:04;;;;;;;8.60;3.65;;;;;;;;;;5054199;28;20371;-59
2023/06/22 11:26:31;;;;;;;6.10;3.92;;;;;;;;;;5054965;28;20051;-59
2023/06/22 11:28:57;;;;;;;5.88;4.53;;;;;;;;;;5055181;28;20435;-59
2023/06/22 11:31:23;;;;;;;5.25;4.25;;;;;;;;;;5054700;28;20017;-59
2023/06/22 11:33:49;;;;;;;8.95;4.97;;;;;;;;;;5054115;28;20025;-59
2023/06/22 11:36:15;;;;;;;8.55;4.55;;;;;;;;;;5054118;28;20047;-59
2023/06/22 11:38:42;;;;;;;6.75;4.80;;;;;;;;;;5054509;28;20032;-59
2023/06/22 11:41:08;;;;;;;5.35;3.83;;;;;;;;;;5055210;28;20444;-59
2023/06/22 11:43:34;;;;;;;6.20;4.22;;;;;;;;;;5054362;28;20029;-59
2023/06/22 11:46:00;;;;;;;8.73;4.90;;;;;;;;;;5054010;28;20032;-59
2023/06/22 11:48:26;;;;;;;8.13;5.00;;;;;;;;;;5054024;28;20025;-60
2023/06/22 11:50:53;;;;;;;9.23;4.28;;;;;;;;;;5053965;28;20027;-61
2023/06/22 11:53:19;;;;;;;9.30;4.10;;;;;;;;;;5054352;28;20094;-60
2023/06/22 11:55:45;;;;;;;7.22;4.32;;;;;;;;;;5054222;28;20017;-60
2023/06/22 11:58:11;;;;;;;6.45;4.60;;;;;;;;;;5054475;28;20028;-60
2023/06/22 12:00:37;;;;;;;9.07;3.95;;;;;;;;;;5053905;28;20021;-60
2023/06/22 12:03:03;;;;;;;11.68;3.85;;;;;;;;;;5053428;28;20064;-60
2023/06/22 12:05:29;;;;;;;7.60;3.97;;;;;;;;;;5053941;28;20061;-60
2023/06/22 12:07:56;;;;;;;6.53;4.03;;;;;;;;;;5054379;28;20057;-60
2023/06/22 12:10:28;;;;;;;7.28;4.78;;;;;;;;;;5053465;28;20017;-60
2023/06/22 12:12:54;;;;;;;5.93;3.95;;;;;;;;;;5054271;28;20086;-60
2023/06/22 12:15:20;;;;;;;7.97;4.57;;;;;;;;;;5053629;28;20049;-60
2023/06/22 12:17:48;;;;;;;8.75;4.47;;;;;;;;;;5053647;28;20029;-60
2023/06/22 12:20:14;;;;;;;10.35;4.53;;;;;;;;;;5053550;28;20029;-60
2023/06/22 12:22:40;;;;;;;8.18;4.57;;;;;;;;;;5053606;28;20029;-60
2023/06/22 12:25:06;;;;;;;6.60;4.45;;;;;;;;;;5053669;28;20029;-60
2023/06/22 12:27:32;;;;;;;6.00;4.25;;;;;;;;;;5054370;28;20035;-60
2023/06/22 12:29:58;;;;;;;9.52;4.43;;;;;;;;;;5053592;28;20441;-60
2023/06/22 12:32:25;;;;;;;5.10;4.38;;;;;;;;;;5054671;28;20017;-60
2023/06/22 12:34:51;;;;;;;8.32;4.40;;;;;;;;;;5057551;28;20028;-60
2023/06/22 12:37:17;;;;;;;5.82;4.13;;;;;;;;;;5058235;28;20112;-60
2023/06/22 12:39:43;;;;;;;17.98;5.28;;;;;;;;;;5057711;28;20371;-60
2023/06/22 12:42:09;;;;;;;6.07;4.72;;;;;;;;;;5057364;28;20025;-60
2023/06/22 12:44:35;;;;;;;5.47;4.15;;;;;;;;;;5057511;28;20487;-60
2023/06/22 12:47:01;;;;;;;8.38;4.45;;;;;;;;;;5057481;28;20033;-60
2023/06/22 12:49:27;;;;;;;5.00;3.63;;;;;;;;;;5057639;28;20462;-60
2023/06/22 12:51:53;;;;;;;8.93;4.38;;;;;;;;;;5057603;28;20031;-60
2023/06/22 12:54:19;;;;;;;11.32;4.53;;;;;;;;;;5057323;28;20060;-60
2023/06/22 12:56:45;;;;;;;11.05;4.43;;;;;;;;;;5057231;28;20032;-60
2023/06/22 12:59:11;;;;;;;9.35;4.30;;;;;;;;;;5057225;28;20029;-60
2023/06/22 13:01:37;;;;;;;5.18;4.47;;;;;;;;;;5057512;28;20029;-60
2023/06/22 13:04:03;;;;;;;13.15;3.55;;;;;;;;;;5056940;28;20028;-60
2023/06/22 13:06:29;;;;;;;7.10;3.72;;;;;;;;;;5057574;28;20029;-60
2023/06/22 13:08:55;;;;;;;6.10;4.20;;;;;;;;;;5056832;28;20044;-60
2023/06/22 13:11:21;;;;;;;8.35;4.80;;;;;;;;;;5056904;28;20021;-60
2023/06/22 13:13:47;;;;;;;9.15;4.45;;;;;;;;;;5057219;28;20029;-60
2023/06/22 13:16:13;;;;;;;8.35;4.75;;;;;;;;;;5057409;28;20045;-60
2023/06/22 13:18:39;;;;;;;7.38;4.82;;;;;;;;;;5057087;28;20079;-60
2023/06/22 13:21:05;;;;;;;5.20;4.35;;;;;;;;;;5056796;28;20021;-61
2023/06/22 13:23:32;;;;;;;5.15;4.18;;;;;;;;;;5056628;28;20071;-61
2023/06/22 13:25:58;;;;;;;10.32;4.53;;;;;;;;;;5057008;28;20032;-60
2023/06/22 13:28:24;;;;;;;6.18;4.15;;;;;;;;;;5056593;28;20021;-60
2023/06/22 13:30:50;;;;;;;7.13;4.25;;;;;;;;;;5057122;28;20025;-60
2023/06/22 13:33:16;;;;;;;7.18;4.22;;;;;;;;;;5056938;28;20071;-60
2023/06/22 13:35:43;;;;;;;5.97;4.15;;;;;;;;;;5055563;28;20367;-60
2023/06/22 13:38:09;;;;;;;5.55;3.67;;;;;;;;;;5056775;28;20028;-60
2023/06/22 13:40:37;;;;;;;8.65;4.25;;;;;;;;;;5056392;28;20028;-62
2023/06/22 13:43:03;;;;;;;5.28;4.03;;;;;;;;;;5056326;28;20025;-60
2023/06/22 13:45:29;;;;;;;8.45;4.68;;;;;;;;;;5055360;28;20356;-60
2023/06/22 13:47:55;;;;;;;6.63;3.92;;;;;;;;;;5056263;28;20029;-60
2023/06/22 13:50:21;;;;;;;9.40;4.07;;;;;;;;;;5056266;28;20017;-60
2023/06/22 13:52:47;;;;;;;6.78;4.18;;;;;;;;;;5056197;28;20017;-61
2023/06/22 13:55:14;;;;;;;5.13;3.85;;;;;;;;;;5056132;28;20025;-60
2023/06/22 13:57:40;;;;;;;7.68;4.47;;;;;;;;;;5056566;28;20378;-60
2023/06/22 14:00:06;;;;;;;6.32;4.28;;;;;;;;;;5055771;28;20036;-60
2023/06/22 14:02:32;;;;;;;4.13;3.63;;;;;;;;;;5055848;28;20025;-61
2023/06/22 14:04:58;;;;;;;8.63;4.30;;;;;;;;;;5055417;28;20087;-61
2023/06/22 14:07:24;;;;;;;8.40;4.43;;;;;;;;;;5056249;28;20102;-61
2023/06/22 14:09:50;;;;;;;4.78;3.47;;;;;;;;;;5056033;28;20056;-62
2023/06/22 14:12:17;;;;;;;7.30;3.55;;;;;;;;;;5055503;28;20060;-59
2023/06/22 14:14:43;;;;;;;6.05;3.92;;;;;;;;;;5055465;28;20345;-59
2023/06/22 14:17:10;;;;;;;9.70;4.47;;;;;;;;;;5055998;28;20052;-59
2023/06/22 14:19:36;;;;;;;9.75;3.95;;;;;;;;;;5055654;28;20367;-59
2023/06/22 14:22:02;;;;;;;5.57;3.55;;;;;;;;;;5056128;28;20024;-59
2023/06/22 14:24:28;;;;;;;8.93;4.38;;;;;;;;;;5055097;28;20025;-59
2023/06/22 14:26:54;;;;;;;10.60;3.88;;;;;;;;;;5055637;28;20134;-59
2023/06/22 14:29:20;;;;;;;7.00;3.97;;;;;;;;;;5055971;28;20078;-59
2023/06/22 14:31:47;;;;;;;6.22;4.00;;;;;;;;;;5056149;28;20028;-59
2023/06/22 14:34:13;;;;;;;5.53;3.78;;;;;;;;;;5055878;28;20362;-59
2023/06/22 14:36:39;;;;;;;5.38;3.30;;;;;;;;;;5055902;28;20059;-60
2023/06/22 14:39:04;;;;;;;5.05;3.45;;;;;;;;;;5055326;28;20308;-60